createdAt,value
2017-04-27T00:00:54.839Z,7.23
2017-04-27T00:01:53.210Z,7.70
2017-04-27T00:02:50.608Z,10.12
2017-04-27T00:03:48.357Z,9.10
2017-04-27T00:04:45.754Z,9.28
2017-04-27T00:05:43.573Z,8.48
2017-04-27T00:06:41.510Z,9.55
2017-04-27T00:07:39.221Z,8.25
2017-04-27T00:08:37.749Z,9.73
2017-04-27T00:09:36.014Z,9.47
2017-04-27T00:10:34.027Z,10.18
2017-04-27T00:11:32.186Z,11.38
2017-04-27T00:12:29.821Z,9.73
2017-04-27T00:13:28.100Z,9.90
2017-04-27T00:14:25.782Z,10.17
2017-04-27T00:15:23.637Z,10.67
2017-04-27T00:16:21.639Z,10.65
2017-04-27T00:17:19.599Z,12.17
2017-04-27T00:18:18.434Z,9.58
2017-04-27T00:19:16.672Z,10.02
2017-04-27T00:20:14.419Z,10.40
2017-04-27T00:21:11.820Z,8.28
2017-04-27T00:22:09.232Z,10.62
2017-04-27T00:23:07.190Z,9.57
2017-04-27T00:24:05.413Z,11.13
2017-04-27T00:25:03.364Z,9.35
2017-04-27T00:26:01.105Z,10.30
2017-04-27T00:26:59.445Z,8.90
2017-04-27T00:27:57.200Z,8.40
2017-04-27T00:28:54.909Z,11.90
2017-04-27T00:29:52.350Z,10.27
2017-04-27T00:30:50.689Z,11.37
2017-04-27T00:31:48.413Z,8.93
2017-04-27T00:32:46.673Z,9.28
2017-04-27T00:33:44.070Z,9.68
2017-04-27T00:34:42.617Z,12.85
2017-04-27T00:35:40.252Z,10.97
2017-04-27T00:36:37.946Z,9.08
2017-04-27T00:37:35.340Z,10.37
2017-04-27T00:38:32.760Z,11.18
2017-04-27T00:39:30.172Z,14.82
2017-04-27T00:40:28.262Z,11.62
2017-04-27T00:41:26.201Z,10.42
2017-04-27T00:42:23.881Z,10.80
2017-04-27T00:43:21.769Z,9.47
2017-04-27T00:44:19.412Z,11.13
2017-04-27T00:45:16.836Z,11.72
2017-04-27T00:46:14.492Z,12.93
2017-04-27T00:47:12.525Z,12.12
2017-04-27T00:48:11.080Z,12.82
2017-04-27T00:49:08.753Z,10.57
2017-04-27T00:50:06.273Z,11.97
2017-04-27T00:51:03.715Z,10.82
2017-04-27T00:52:01.443Z,12.28
2017-04-27T00:52:59.391Z,10.75
2017-04-27T00:53:57.104Z,12.33
2017-04-27T00:54:54.500Z,11.12
2017-04-27T00:55:52.566Z,12.95
2017-04-27T00:56:49.976Z,11.67
2017-04-27T00:57:47.653Z,14.85
2017-04-27T00:58:45.049Z,11.95
2017-04-27T00:59:42.798Z,11.68
2017-04-27T01:00:40.752Z,11.88
2017-04-27T01:01:41.619Z,11.72
2017-04-27T01:02:39.393Z,11.22
2017-04-27T01:03:37.525Z,12.12
2017-04-27T01:04:35.317Z,11.73
2017-04-27T01:05:32.959Z,14.98
2017-04-27T01:06:35.042Z,11.50
2017-04-27T01:07:38.635Z,11.50
2017-04-27T01:08:36.878Z,16.05
2017-04-27T01:09:34.300Z,14.20
2017-04-27T01:10:32.318Z,12.95
2017-04-27T01:11:30.121Z,12.77
2017-04-27T01:12:28.528Z,13.33
2017-04-27T01:13:26.725Z,16.67
2017-04-27T01:14:24.160Z,14.02
2017-04-27T01:15:21.845Z,13.52
2017-04-27T01:16:19.800Z,13.05
2017-04-27T01:17:17.217Z,14.32
2017-04-27T01:18:14.612Z,15.85
2017-04-27T01:19:13.215Z,14.45
2017-04-27T01:20:10.633Z,14.52
2017-04-27T01:21:08.412Z,14.12
2017-04-27T01:22:06.056Z,16.05
2017-04-27T01:23:03.721Z,17.17
2017-04-27T01:24:01.139Z,15.80
2017-04-27T01:24:59.076Z,18.25
2017-04-27T01:25:57.601Z,15.27
2017-04-27T01:26:55.520Z,14.07
2017-04-27T01:27:52.982Z,13.07
2017-04-27T01:28:50.728Z,10.92
2017-04-27T01:29:48.411Z,13.47
2017-04-27T01:30:46.441Z,12.88
2017-04-27T01:31:44.274Z,15.73
2017-04-27T01:32:41.693Z,12.50
2017-04-27T01:33:39.826Z,13.23
2017-04-27T01:34:37.484Z,10.18
2017-04-27T01:35:35.397Z,11.70
2017-04-27T01:36:33.785Z,13.40
2017-04-27T01:37:31.532Z,13.05
2017-04-27T01:38:29.337Z,15.32
2017-04-27T01:39:27.116Z,12.32
2017-04-27T01:40:25.580Z,15.35
2017-04-27T01:41:23.285Z,13.32
2017-04-27T01:42:21.371Z,12.45
2017-04-27T01:43:19.370Z,13.55
2017-04-27T01:44:17.837Z,14.53
2017-04-27T01:45:16.107Z,17.78
2017-04-27T01:46:13.522Z,15.95
2017-04-27T01:47:11.534Z,19.52
2017-04-27T01:48:09.565Z,13.12
2017-04-27T01:49:07.456Z,16.48
2017-04-27T01:50:05.101Z,16.25
2017-04-27T01:51:03.449Z,14.80
2017-04-27T01:52:01.322Z,15.42
2017-04-27T01:52:58.956Z,14.33
2017-04-27T01:53:56.669Z,15.47
2017-04-27T01:54:55.114Z,15.28
2017-04-27T01:55:53.092Z,15.00
2017-04-27T01:56:51.337Z,17.20
2017-04-27T01:57:49.397Z,15.28
2017-04-27T01:58:47.746Z,15.32
2017-04-27T01:59:45.805Z,15.43
2017-04-27T02:00:43.809Z,15.13
2017-04-27T02:01:41.495Z,16.62
2017-04-27T02:02:39.536Z,17.23
2017-04-27T02:03:37.658Z,18.92
2017-04-27T02:04:35.318Z,21.13
2017-04-27T02:05:33.860Z,19.93
2017-04-27T02:06:31.289Z,19.85
2017-04-27T02:07:29.478Z,17.57
2017-04-27T02:08:27.594Z,21.10
2017-04-27T02:09:25.353Z,19.55
2017-04-27T02:10:23.427Z,16.88
2017-04-27T02:11:22.057Z,16.67
2017-04-27T02:12:20.036Z,19.50
2017-04-27T02:13:18.347Z,16.92
2017-04-27T02:14:16.466Z,17.40
2017-04-27T02:15:14.177Z,16.40
2017-04-27T02:16:12.222Z,16.43
2017-04-27T02:17:10.934Z,17.47
2017-04-27T02:18:09.277Z,17.85
2017-04-27T02:19:06.675Z,15.22
2017-04-27T02:20:04.700Z,14.32
2017-04-27T02:21:02.528Z,14.93
2017-04-27T02:22:00.314Z,15.07
2017-04-27T02:22:58.788Z,14.13
2017-04-27T02:23:56.706Z,13.72
2017-04-27T02:24:54.532Z,15.87
2017-04-27T02:25:52.980Z,13.95
2017-04-27T02:26:50.863Z,16.72
2017-04-27T02:27:48.285Z,14.77
2017-04-27T02:28:46.274Z,14.40
2017-04-27T02:29:45.059Z,15.38
2017-04-27T02:30:42.499Z,12.92
2017-04-27T02:31:40.545Z,17.07
2017-04-27T02:32:38.962Z,12.67
2017-04-27T02:33:36.365Z,12.88
2017-04-27T02:34:35.472Z,13.85
2017-04-27T02:35:32.900Z,13.40
2017-04-27T02:36:30.312Z,15.98
2017-04-27T02:37:28.520Z,15.07
2017-04-27T02:38:26.285Z,15.18
2017-04-27T02:39:24.092Z,15.50
2017-04-27T02:40:22.153Z,13.10
2017-04-27T02:41:20.231Z,16.25
2017-04-27T02:42:17.624Z,16.22
2017-04-27T02:43:16.043Z,16.12
2017-04-27T02:44:14.322Z,16.03
2017-04-27T02:45:11.733Z,17.35
2017-04-27T02:46:10.151Z,16.08
2017-04-27T02:47:07.944Z,16.48
2017-04-27T02:48:05.740Z,13.95
2017-04-27T02:49:03.740Z,15.87
2017-04-27T02:50:01.853Z,16.20
2017-04-27T02:50:59.264Z,16.93
2017-04-27T02:51:57.590Z,16.12
2017-04-27T02:52:56.042Z,16.08
2017-04-27T02:53:53.826Z,15.23
2017-04-27T02:54:51.985Z,15.80
2017-04-27T02:55:49.704Z,14.88
2017-04-27T02:56:48.025Z,14.08
2017-04-27T02:57:45.736Z,12.97
2017-04-27T02:58:44.431Z,14.83
2017-04-27T02:59:42.582Z,12.83
2017-04-27T03:00:40.780Z,15.33
2017-04-27T03:01:39.155Z,15.42
2017-04-27T03:02:36.569Z,14.93
2017-04-27T03:03:34.285Z,14.92
2017-04-27T03:04:32.485Z,15.77
2017-04-27T03:05:30.248Z,15.18
2017-04-27T03:06:28.209Z,17.77
2017-04-27T03:07:25.623Z,15.97
2017-04-27T03:08:23.630Z,18.00
2017-04-27T03:09:22.804Z,15.80
2017-04-27T03:10:20.485Z,16.47
2017-04-27T03:11:18.284Z,15.18
2017-04-27T03:12:15.995Z,15.40
2017-04-27T03:13:13.845Z,17.12
2017-04-27T03:14:12.070Z,13.98
2017-04-27T03:15:10.110Z,16.72
2017-04-27T03:16:07.772Z,15.52
2017-04-27T03:17:05.420Z,15.50
2017-04-27T03:18:03.111Z,15.73
2017-04-27T03:19:01.275Z,16.10
2017-04-27T03:19:58.705Z,17.90
2017-04-27T03:20:56.668Z,15.08
2017-04-27T03:21:54.353Z,15.97
2017-04-27T03:22:52.643Z,15.12
2017-04-27T03:23:50.092Z,16.73
2017-04-27T03:24:48.385Z,15.25
2017-04-27T03:25:46.156Z,15.25
2017-04-27T03:26:44.379Z,16.70
2017-04-27T03:27:42.125Z,16.58
2017-04-27T03:28:39.925Z,15.92
2017-04-27T03:29:37.948Z,15.95
2017-04-27T03:30:35.369Z,18.38
2017-04-27T03:31:33.178Z,17.08
2017-04-27T03:32:31.345Z,15.55
2017-04-27T03:33:28.998Z,16.65
2017-04-27T03:34:26.970Z,16.80
2017-04-27T03:35:24.785Z,17.50
2017-04-27T03:36:22.864Z,17.73
2017-04-27T03:37:20.844Z,16.50
2017-04-27T03:38:19.165Z,17.33
2017-04-27T03:39:16.571Z,17.47
2017-04-27T03:40:14.296Z,17.27
2017-04-27T03:41:11.716Z,18.72
2017-04-27T03:42:09.732Z,15.97
2017-04-27T03:43:07.427Z,17.17
2017-04-27T03:44:05.133Z,17.92
2017-04-27T03:45:03.306Z,19.03
2017-04-27T03:46:01.746Z,16.10
2017-04-27T03:46:59.145Z,17.68
2017-04-27T03:47:58.458Z,17.55
2017-04-27T03:48:56.189Z,17.35
2017-04-27T03:49:54.522Z,21.43
2017-04-27T03:50:52.173Z,16.10
2017-04-27T03:51:50.613Z,16.45
2017-04-27T03:52:49.239Z,17.12
2017-04-27T03:53:46.939Z,16.65
2017-04-27T03:54:44.736Z,20.25
2017-04-27T03:55:43.424Z,19.90
2017-04-27T03:56:41.425Z,18.10
2017-04-27T03:57:39.094Z,18.83
2017-04-27T03:58:36.869Z,19.63
2017-04-27T03:59:34.684Z,20.83
2017-04-27T04:00:32.164Z,19.08
2017-04-27T04:01:30.561Z,20.67
2017-04-27T04:02:28.746Z,19.05
2017-04-27T04:03:26.602Z,22.40
2017-04-27T04:04:25.142Z,20.37
2017-04-27T04:05:23.646Z,23.25
2017-04-27T04:06:21.806Z,20.87
2017-04-27T04:07:19.780Z,25.98
2017-04-27T04:08:17.229Z,23.95
2017-04-27T04:09:14.997Z,23.97
2017-04-27T04:10:12.404Z,23.88
2017-04-27T04:11:09.811Z,24.88
2017-04-27T04:12:07.226Z,24.08
2017-04-27T04:13:05.710Z,25.20
2017-04-27T04:14:03.636Z,23.55
2017-04-27T04:15:01.593Z,26.60
2017-04-27T04:15:58.992Z,27.42
2017-04-27T04:16:57.224Z,25.85
2017-04-27T04:17:54.624Z,20.90
2017-04-27T04:18:53.916Z,25.67
2017-04-27T04:19:51.329Z,27.00
2017-04-27T04:20:49.594Z,24.12
2017-04-27T04:21:47.580Z,26.10
2017-04-27T04:22:45.345Z,24.98
2017-04-27T04:23:42.783Z,25.57
2017-04-27T04:24:41.963Z,24.25
2017-04-27T04:25:40.056Z,23.93
2017-04-27T04:26:38.281Z,23.97
2017-04-27T04:27:35.956Z,24.60
2017-04-27T04:28:33.604Z,23.07
2017-04-27T04:29:31.481Z,22.13
2017-04-27T04:30:29.930Z,24.72
2017-04-27T04:31:27.853Z,24.60
2017-04-27T04:32:25.826Z,25.53
2017-04-27T04:33:23.612Z,26.77
2017-04-27T04:34:21.839Z,23.42
2017-04-27T04:35:19.288Z,24.38
2017-04-27T04:36:17.278Z,21.53
2017-04-27T04:37:14.674Z,25.03
2017-04-27T04:38:13.031Z,25.37
2017-04-27T04:39:10.826Z,28.35
2017-04-27T04:40:08.452Z,24.80
2017-04-27T04:41:06.110Z,25.68
2017-04-27T04:42:04.812Z,23.60
2017-04-27T04:43:03.250Z,24.78
2017-04-27T04:44:01.068Z,24.57
2017-04-27T04:44:58.464Z,24.52
2017-04-27T04:45:56.351Z,25.02
2017-04-27T04:46:54.445Z,27.38
2017-04-27T04:47:52.491Z,22.30
2017-04-27T04:48:50.049Z,24.93
2017-04-27T04:49:48.529Z,25.90
2017-04-27T04:50:46.528Z,23.57
2017-04-27T04:51:43.965Z,25.57
2017-04-27T04:52:41.735Z,26.08
2017-04-27T04:53:40.665Z,21.98
2017-04-27T04:54:38.844Z,24.38
2017-04-27T04:55:36.539Z,23.55
2017-04-27T04:56:34.312Z,22.58
2017-04-27T04:57:31.771Z,21.23
2017-04-27T04:58:29.205Z,20.83
2017-04-27T04:59:26.964Z,22.08
2017-04-27T05:00:24.392Z,24.00
2017-04-27T05:01:21.809Z,23.20
2017-04-27T05:02:19.525Z,20.97
2017-04-27T05:03:17.536Z,22.15
2017-04-27T05:04:15.424Z,22.42
2017-04-27T05:05:13.374Z,25.25
2017-04-27T05:06:11.732Z,22.10
2017-04-27T05:07:09.724Z,24.20
2017-04-27T05:08:07.378Z,21.17
2017-04-27T05:09:06.043Z,21.50
2017-04-27T05:10:03.857Z,22.05
2017-04-27T05:11:02.065Z,20.62
2017-04-27T05:11:59.873Z,20.82
2017-04-27T05:12:57.720Z,19.70
2017-04-27T05:13:55.882Z,20.33
2017-04-27T05:14:53.555Z,21.08
2017-04-27T05:15:51.205Z,21.60
2017-04-27T05:16:49.937Z,21.78
2017-04-27T05:17:47.992Z,22.58
2017-04-27T05:18:45.884Z,18.77
2017-04-27T05:19:43.293Z,19.85
2017-04-27T05:20:41.133Z,20.35
2017-04-27T05:21:38.941Z,20.98
2017-04-27T05:22:37.627Z,19.57
2017-04-27T05:23:35.951Z,21.88
2017-04-27T05:24:34.223Z,21.82
2017-04-27T05:25:31.721Z,19.52
2017-04-27T05:26:29.153Z,18.23
2017-04-27T05:27:26.897Z,19.18
2017-04-27T05:28:24.623Z,21.32
2017-04-27T05:29:22.016Z,22.13
2017-04-27T05:30:19.448Z,20.00
2017-04-27T05:31:17.091Z,19.78
2017-04-27T05:32:14.545Z,19.13
2017-04-27T05:33:11.968Z,20.32
2017-04-27T05:34:10.265Z,21.12
2017-04-27T05:35:07.669Z,19.60
2017-04-27T05:36:05.320Z,20.23
2017-04-27T05:37:02.781Z,20.13
2017-04-27T05:38:00.516Z,20.37
2017-04-27T05:38:57.958Z,20.98
2017-04-27T05:39:55.683Z,18.73
2017-04-27T05:40:53.146Z,18.70
2017-04-27T05:41:50.815Z,20.02
2017-04-27T05:42:48.279Z,20.23
2017-04-27T05:43:45.805Z,20.93
2017-04-27T05:44:43.468Z,20.00
2017-04-27T05:45:41.405Z,19.62
2017-04-27T05:46:39.073Z,21.53
2017-04-27T05:47:36.713Z,17.20
2017-04-27T05:48:34.482Z,18.67
2017-04-27T05:49:31.897Z,19.53
2017-04-27T05:50:29.810Z,18.98
2017-04-27T05:51:27.532Z,19.97
2017-04-27T05:52:25.416Z,17.32
2017-04-27T05:53:22.818Z,15.68
2017-04-27T05:54:20.253Z,15.63
2017-04-27T05:55:18.604Z,17.23
2017-04-27T05:56:17.128Z,16.85
2017-04-27T05:57:15.711Z,14.23
2017-04-27T05:58:13.145Z,14.32
2017-04-27T05:59:10.573Z,13.97
2017-04-27T06:00:08.058Z,14.17
2017-04-27T06:01:05.509Z,15.93
2017-04-27T06:02:03.485Z,16.00
2017-04-27T06:03:01.819Z,14.05
2017-04-27T06:03:59.814Z,13.45
2017-04-27T06:04:57.481Z,14.17
2017-04-27T06:05:54.893Z,13.75
2017-04-27T06:06:52.305Z,14.20
2017-04-27T06:07:49.733Z,13.43
2017-04-27T06:08:47.459Z,14.13
2017-04-27T06:09:45.209Z,16.20
2017-04-27T06:10:42.629Z,13.42
2017-04-27T06:11:40.060Z,13.95
2017-04-27T06:12:37.496Z,12.63
2017-04-27T06:13:35.310Z,13.12
2017-04-27T06:14:33.013Z,13.38
2017-04-27T06:15:30.434Z,12.80
2017-04-27T06:16:27.876Z,12.63
2017-04-27T06:17:25.290Z,12.43
2017-04-27T06:18:22.712Z,11.37
2017-04-27T06:19:20.161Z,11.52
2017-04-27T06:20:17.870Z,11.42
2017-04-27T06:21:15.595Z,10.47
2017-04-27T06:22:13.002Z,9.52
2017-04-27T06:23:10.418Z,10.15
2017-04-27T06:24:07.849Z,11.25
2017-04-27T06:25:05.570Z,9.58
2017-04-27T06:26:03.270Z,10.82
2017-04-27T06:27:00.680Z,9.85
2017-04-27T06:27:58.098Z,10.38
2017-04-27T06:28:55.504Z,10.42
2017-04-27T06:29:52.919Z,10.00
2017-04-27T06:30:50.714Z,10.97
2017-04-27T06:31:48.432Z,10.53
2017-04-27T06:32:46.111Z,10.05
2017-04-27T06:33:43.526Z,10.75
2017-04-27T06:34:40.952Z,10.33
2017-04-27T06:35:38.372Z,10.48
2017-04-27T06:36:35.805Z,11.43
2017-04-27T06:37:33.758Z,10.55
2017-04-27T06:38:31.209Z,9.78
2017-04-27T07:35:40.532Z,69.72
2017-04-27T07:36:38.222Z,13.37
2017-04-27T07:37:36.210Z,12.12
2017-04-27T08:05:58.347Z,21.97
2017-04-27T08:06:56.522Z,5.42
2017-04-27T08:07:55.061Z,6.08
2017-04-27T08:08:53.522Z,6.24
2017-04-27T08:09:51.513Z,7.08
2017-04-27T08:10:50.394Z,6.15
2017-04-27T08:11:48.037Z,5.94
2017-04-27T08:12:46.814Z,78.40
2017-04-27T08:13:44.515Z,5.60
2017-04-27T08:14:41.964Z,7.27
2017-04-27T08:15:39.393Z,5.95
2017-04-27T08:16:36.829Z,6.73
2017-04-27T08:17:34.257Z,6.05
2017-04-27T08:18:31.672Z,6.23
2017-04-27T08:19:29.376Z,6.02
2017-04-27T08:20:26.790Z,6.53
2017-04-27T08:21:24.218Z,7.72
2017-04-27T08:22:22.128Z,7.50
2017-04-27T08:23:19.526Z,5.72
2017-04-27T08:24:16.950Z,6.17
2017-04-27T08:25:14.686Z,6.72
2017-04-27T08:26:12.122Z,6.52
2017-04-27T08:27:09.537Z,4.17
2017-04-27T08:28:06.984Z,3.63
2017-04-27T08:29:04.407Z,3.57
2017-04-27T08:30:01.810Z,4.18
2017-04-27T08:30:59.514Z,4.10
2017-04-27T08:31:56.922Z,5.82
2017-04-27T08:32:54.340Z,4.80
2017-04-27T08:33:51.789Z,3.87
2017-04-27T08:34:49.219Z,4.27
2017-04-27T08:35:46.635Z,5.40
2017-04-27T08:36:44.336Z,4.68
2017-04-27T08:37:41.737Z,4.97
2017-04-27T08:38:39.128Z,5.70
2017-04-27T08:39:36.541Z,4.65
2017-04-27T08:40:33.953Z,4.83
2017-04-27T08:41:31.381Z,3.68
2017-04-27T08:42:29.100Z,5.67
2017-04-27T08:43:26.516Z,6.15
2017-04-27T08:44:23.917Z,6.47
2017-04-27T08:45:21.337Z,3.98
2017-04-27T08:46:18.764Z,3.30
2017-04-27T08:47:16.205Z,4.13
2017-04-27T08:48:13.918Z,4.62
2017-04-27T08:49:11.352Z,4.15
2017-04-27T08:50:08.762Z,4.93
2017-04-27T08:51:06.156Z,4.68
2017-04-27T08:52:03.569Z,4.83
2017-04-27T08:53:01.002Z,7.33
2017-04-27T08:53:58.705Z,4.62
2017-04-27T08:54:56.125Z,3.55
2017-04-27T08:55:53.508Z,3.40
2017-04-27T08:56:50.942Z,4.85
2017-04-27T08:57:48.333Z,6.05
2017-04-27T08:58:45.764Z,3.90
2017-04-27T08:59:43.550Z,5.92
2017-04-27T09:00:40.940Z,3.75
2017-04-27T09:01:38.345Z,5.62
2017-04-27T09:02:36.274Z,4.35
2017-04-27T09:03:33.681Z,4.12
2017-04-27T09:04:31.077Z,4.07
2017-04-27T09:05:28.789Z,4.55
2017-04-27T09:06:26.222Z,4.20
2017-04-27T09:07:23.640Z,4.47
2017-04-27T09:08:21.028Z,3.52
2017-04-27T09:09:18.452Z,4.40
2017-04-27T09:10:15.856Z,3.45
2017-04-27T09:11:13.566Z,2.40
2017-04-27T09:12:10.993Z,3.93
2017-04-27T09:13:08.406Z,5.53
2017-04-27T09:14:05.953Z,3.47
2017-04-27T09:15:03.374Z,4.28
2017-04-27T09:16:00.789Z,2.38
2017-04-27T09:16:58.496Z,3.48
2017-04-27T09:17:55.898Z,2.45
2017-04-27T09:18:53.322Z,2.30
2017-04-27T09:19:50.740Z,6.78
2017-04-27T09:20:48.155Z,2.40
2017-04-27T09:21:45.563Z,3.78
2017-04-27T09:22:43.302Z,3.55
2017-04-27T09:23:40.701Z,2.35
2017-04-27T09:24:38.449Z,4.13
2017-04-27T09:25:35.867Z,2.95
2017-04-27T09:26:33.282Z,4.95
2017-04-27T09:27:30.657Z,2.92
2017-04-27T09:28:28.349Z,3.33
2017-04-27T09:29:25.742Z,4.78
2017-04-27T09:30:23.156Z,5.23
2017-04-27T09:31:20.575Z,3.83
2017-04-27T09:32:18.080Z,5.83
2017-04-27T09:33:15.490Z,3.52
2017-04-27T09:34:13.206Z,6.60
2017-04-27T09:35:10.629Z,2.68
2017-04-27T09:36:08.032Z,5.18
2017-04-27T09:37:05.453Z,4.75
2017-04-27T09:38:02.919Z,4.25
2017-04-27T09:39:00.340Z,2.65
2017-04-27T09:39:58.066Z,4.53
2017-04-27T09:40:55.490Z,7.18
2017-04-27T09:41:52.906Z,4.95
2017-04-27T09:42:50.300Z,3.82
2017-04-27T09:43:47.705Z,3.33
2017-04-27T09:44:45.157Z,3.70
2017-04-27T09:45:42.861Z,3.73
2017-04-27T09:46:40.677Z,2.62
2017-04-27T09:47:38.071Z,5.90
2017-04-27T09:48:35.506Z,5.37
2017-04-27T09:49:32.933Z,6.37
2017-04-27T09:50:30.349Z,5.82
2017-04-27T09:51:28.068Z,3.82
2017-04-27T09:52:25.499Z,5.80
2017-04-27T09:53:22.900Z,7.40
2017-04-27T09:54:20.318Z,3.70
2017-04-27T09:55:17.716Z,3.10
2017-04-27T09:56:15.164Z,2.57
2017-04-27T09:57:12.860Z,3.67
2017-04-27T09:58:10.281Z,3.88
2017-04-27T09:59:07.683Z,3.78
2017-04-27T10:00:05.089Z,4.25
2017-04-27T10:01:02.496Z,3.00
2017-04-27T10:01:59.953Z,6.83
2017-04-27T10:02:57.657Z,3.77
2017-04-27T10:03:55.728Z,3.48
2017-04-27T10:04:53.143Z,4.67
2017-04-27T10:05:50.545Z,8.33
2017-04-27T10:06:47.986Z,2.92
2017-04-27T10:07:45.380Z,6.78
2017-04-27T10:08:43.060Z,1.68
2017-04-27T10:09:40.474Z,2.35
2017-04-27T10:10:37.888Z,4.43
2017-04-27T10:11:36.274Z,6.65
2017-04-27T10:12:33.670Z,4.10
2017-04-27T10:13:31.102Z,4.97
2017-04-27T10:14:28.881Z,3.90
2017-04-27T10:15:26.309Z,4.78
2017-04-27T10:16:23.724Z,4.23
2017-04-27T10:17:21.145Z,4.85
2017-04-27T10:18:18.552Z,4.53
2017-04-27T10:19:15.977Z,5.07
2017-04-27T10:20:13.711Z,5.40
2017-04-27T10:21:11.164Z,3.55
2017-04-27T10:22:15.029Z,4.53
2017-04-27T10:23:12.425Z,2.77
2017-04-27T10:24:10.399Z,4.20
2017-04-27T10:25:08.036Z,4.18
2017-04-27T10:26:05.732Z,2.60
2017-04-27T10:27:03.165Z,2.88
2017-04-27T10:28:00.610Z,3.25
2017-04-27T10:28:58.113Z,6.13
2017-04-27T10:29:55.524Z,3.00
2017-04-27T10:30:52.952Z,4.15
2017-04-27T10:31:50.653Z,6.00
2017-04-27T10:32:48.076Z,3.07
2017-04-27T10:33:45.514Z,6.83
2017-04-27T10:34:43.197Z,4.23
2017-04-27T10:35:40.868Z,6.30
2017-04-27T10:36:38.281Z,2.82
2017-04-27T10:37:35.982Z,4.47
2017-04-27T10:38:33.405Z,3.83
2017-04-27T10:39:30.850Z,3.42
2017-04-27T10:40:28.271Z,6.08
2017-04-27T10:41:25.702Z,4.67
2017-04-27T10:42:23.108Z,4.53
2017-04-27T10:43:20.776Z,3.42
2017-04-27T10:44:18.168Z,2.62
2017-04-27T10:45:15.579Z,2.65
2017-04-27T10:46:13.001Z,3.58
2017-04-27T10:47:10.425Z,3.92
2017-04-27T10:48:07.809Z,3.27
2017-04-27T10:49:05.486Z,3.37
2017-04-27T10:50:02.918Z,2.13
2017-04-27T10:51:00.359Z,3.00
2017-04-27T10:51:57.769Z,3.43
2017-04-27T10:52:55.871Z,3.60
2017-04-27T10:53:53.294Z,2.52
2017-04-27T10:54:51.002Z,5.87
2017-04-27T10:55:48.493Z,3.53
2017-04-27T10:56:45.916Z,4.42
2017-04-27T10:57:43.300Z,2.55
2017-04-27T10:58:40.675Z,4.45
2017-04-27T10:59:38.094Z,3.33
2017-04-27T11:00:35.830Z,2.07
2017-04-27T11:01:33.221Z,4.03
2017-04-27T11:02:30.630Z,3.65
2017-04-27T11:03:28.077Z,3.00
2017-04-27T11:04:25.501Z,4.62
2017-04-27T11:05:22.933Z,2.40
2017-04-27T11:06:20.608Z,4.22
2017-04-27T11:07:18.047Z,2.98
2017-04-27T11:08:15.432Z,3.13
2017-04-27T11:09:12.841Z,2.20
2017-04-27T11:10:10.253Z,3.83
2017-04-27T11:11:07.705Z,2.17
2017-04-27T11:12:05.410Z,3.62
2017-04-27T11:13:02.822Z,3.23
2017-04-27T11:14:00.228Z,2.93
2017-04-27T11:14:57.624Z,2.27
2017-04-27T11:15:55.059Z,1.75
2017-04-27T11:16:52.481Z,2.53
2017-04-27T11:17:50.660Z,3.02
2017-04-27T11:18:48.084Z,4.30
2017-04-27T11:19:45.497Z,2.88
2017-04-27T11:20:42.901Z,1.97
2017-04-27T11:21:40.326Z,4.87
2017-04-27T11:22:37.757Z,4.87
2017-04-27T11:23:35.449Z,1.70
2017-04-27T11:24:32.862Z,1.95
2017-04-27T11:25:30.302Z,2.53
2017-04-27T11:26:27.724Z,2.05
2017-04-27T11:27:25.149Z,3.95
2017-04-27T11:28:22.569Z,3.87
2017-04-27T11:29:20.278Z,6.10
2017-04-27T11:30:17.688Z,2.43
2017-04-27T11:31:15.093Z,5.60
2017-04-27T11:32:12.500Z,3.75
2017-04-27T11:33:09.936Z,2.08
2017-04-27T11:34:07.330Z,2.57
2017-04-27T11:35:05.066Z,2.13
2017-04-27T11:36:02.505Z,2.62
2017-04-27T11:36:59.903Z,2.55
2017-04-27T11:37:57.340Z,2.65
2017-04-27T11:38:54.779Z,2.18
2017-04-27T11:39:52.257Z,2.50
2017-04-27T11:40:49.969Z,2.72
2017-04-27T11:41:47.400Z,2.07
2017-04-27T11:42:44.800Z,3.23
2017-04-27T11:43:42.206Z,4.97
2017-04-27T11:44:39.630Z,4.47
2017-04-27T11:45:37.028Z,3.77
2017-04-27T11:46:34.726Z,5.57
2017-04-27T11:47:32.122Z,2.78
2017-04-27T11:48:29.522Z,5.35
2017-04-27T11:49:26.935Z,6.88
2017-04-27T11:50:24.337Z,3.25
2017-04-27T11:51:21.742Z,5.85
2017-04-27T11:52:19.452Z,3.85
2017-04-27T11:53:16.894Z,3.27
2017-04-27T11:54:14.307Z,4.02
2017-04-27T11:55:11.732Z,4.35
2017-04-27T11:56:09.148Z,5.13
2017-04-27T11:57:06.545Z,4.78
2017-04-27T11:58:04.260Z,5.50
2017-04-27T11:59:01.680Z,3.48
2017-04-27T11:59:59.091Z,4.72
2017-04-27T12:00:56.501Z,3.97
2017-04-27T12:01:53.942Z,2.33
2017-04-27T12:02:51.342Z,5.03
2017-04-27T12:03:49.041Z,4.47
2017-04-27T12:04:46.439Z,3.00
2017-04-27T12:05:43.862Z,5.15
2017-04-27T12:06:41.296Z,3.43
2017-04-27T12:07:38.753Z,2.93
2017-04-27T12:08:36.142Z,2.95
2017-04-27T12:09:33.852Z,2.70
2017-04-27T12:10:31.240Z,4.32
2017-04-27T12:11:28.641Z,3.87
2017-04-27T12:12:26.060Z,4.55
2017-04-27T12:13:23.475Z,4.30
2017-04-27T12:14:20.888Z,5.18
2017-04-27T12:15:18.638Z,3.25
2017-04-27T12:16:16.032Z,1.82
2017-04-27T12:17:13.433Z,3.40
2017-04-27T12:18:10.849Z,3.45
2017-04-27T12:19:08.270Z,4.72
2017-04-27T12:20:05.681Z,5.72
2017-04-27T12:21:03.406Z,3.62
2017-04-27T12:22:01.126Z,2.70
2017-04-27T12:22:58.557Z,3.78
2017-04-27T12:23:56.006Z,2.72
2017-04-27T12:24:53.462Z,3.72
2017-04-27T12:25:50.923Z,2.90
2017-04-27T12:26:48.628Z,3.05
2017-04-27T12:27:47.139Z,1.70
2017-04-27T12:28:44.572Z,5.25
2017-04-27T12:29:41.965Z,3.73
2017-04-27T12:30:39.385Z,5.43
2017-04-27T12:31:37.409Z,3.47
2017-04-27T12:32:35.129Z,3.05
2017-04-27T12:33:32.557Z,5.02
2017-04-27T12:34:30.137Z,5.15
2017-04-27T12:35:28.597Z,2.33
2017-04-27T12:36:26.042Z,3.12
2017-04-27T12:37:23.460Z,1.65
2017-04-27T12:38:21.160Z,2.13
2017-04-27T12:39:18.553Z,4.80
2017-04-27T12:40:15.982Z,1.33
2017-04-27T12:41:13.436Z,3.80
2017-04-27T12:42:10.894Z,2.45
2017-04-27T12:43:08.295Z,4.23
2017-04-27T12:44:06.002Z,2.45
2017-04-27T12:45:03.421Z,1.82
2017-04-27T12:46:00.832Z,5.32
2017-04-27T12:46:58.233Z,4.95
2017-04-27T12:47:55.702Z,3.20
2017-04-27T12:48:53.141Z,5.93
2017-04-27T12:49:50.857Z,3.72
2017-04-27T12:50:48.742Z,3.13
2017-04-27T12:51:46.195Z,3.75
2017-04-27T12:52:43.624Z,2.08
2017-04-27T12:53:41.043Z,1.85
2017-04-27T12:54:38.789Z,4.63
2017-04-27T12:55:36.497Z,2.20
2017-04-27T12:56:33.914Z,2.27
2017-04-27T12:57:31.794Z,3.60
2017-04-27T12:58:29.183Z,4.93
2017-04-27T12:59:26.614Z,4.57
2017-04-27T13:00:24.066Z,4.35
2017-04-27T13:01:21.808Z,5.92
2017-04-27T13:02:19.949Z,1.57
2017-04-27T13:03:17.347Z,3.37
2017-04-27T13:04:14.733Z,2.33
2017-04-27T13:05:12.116Z,3.88
2017-04-27T13:06:09.536Z,2.85
2017-04-27T13:07:07.229Z,2.22
2017-04-27T13:08:04.663Z,2.03
2017-04-27T13:09:02.310Z,2.43
2017-04-27T13:09:59.708Z,3.55
2017-04-27T13:10:57.120Z,3.18
2017-04-27T13:11:55.587Z,2.40
2017-04-27T13:12:53.300Z,1.97
2017-04-27T13:13:50.833Z,1.82
2017-04-27T13:14:48.946Z,4.60
2017-04-27T13:15:46.382Z,2.57
2017-04-27T13:16:43.781Z,1.70
2017-04-27T13:17:41.202Z,2.62
2017-04-27T13:18:38.880Z,1.98
2017-04-27T13:19:36.294Z,1.68
2017-04-27T13:20:34.615Z,2.62
2017-04-27T13:21:32.031Z,4.47
2017-04-27T13:22:29.435Z,1.88
2017-04-27T13:23:26.854Z,4.05
2017-04-27T13:24:24.593Z,4.52
2017-04-27T13:25:22.891Z,2.52
2017-04-27T13:26:20.334Z,2.97
2017-04-27T13:27:17.763Z,2.83
2017-04-27T13:28:15.213Z,2.22
2017-04-27T13:29:12.647Z,2.80
2017-04-27T13:30:10.668Z,5.80
2017-04-27T13:31:08.093Z,3.47
2017-04-27T13:32:05.510Z,1.63
2017-04-27T13:33:02.939Z,3.17
2017-04-27T13:34:00.403Z,2.73
2017-04-27T13:34:57.817Z,1.80
2017-04-27T13:35:55.529Z,3.57
2017-04-27T13:36:53.297Z,5.27
2017-04-27T13:37:50.726Z,3.18
2017-04-27T13:38:48.162Z,1.77
2017-04-27T13:39:45.565Z,3.35
2017-04-27T13:40:43.645Z,5.00
2017-04-27T13:41:41.384Z,3.40
2017-04-27T13:42:38.823Z,1.83
2017-04-27T13:43:36.234Z,2.37
2017-04-27T13:44:33.705Z,5.33
2017-04-27T13:45:31.105Z,3.05
2017-04-27T13:46:28.534Z,3.90
2017-04-27T13:47:26.221Z,1.60
2017-04-27T13:48:24.314Z,2.75
2017-04-27T13:49:21.765Z,2.50
2017-04-27T13:50:19.190Z,5.50
2017-04-27T13:51:16.654Z,2.83
2017-04-27T13:52:14.801Z,5.23
2017-04-27T13:53:13.074Z,2.72
2017-04-27T13:54:11.293Z,1.53
2017-04-27T13:55:08.713Z,1.95
2017-04-27T13:56:06.120Z,2.00
2017-04-27T13:57:04.479Z,1.67
2017-04-27T13:58:01.997Z,1.60
2017-04-27T13:58:59.714Z,3.57
2017-04-27T13:59:57.133Z,2.57